createdAt,value
2023-01-13T00:00:05.306Z,9.83
2023-01-13T00:02:33.937Z,9.75
2023-01-13T00:05:00.366Z,9.95
2023-01-13T00:07:26.745Z,10.10
2023-01-13T00:09:53.084Z,9.25
2023-01-13T00:12:19.561Z,9.28
2023-01-13T00:14:45.958Z,9.18
2023-01-13T00:17:12.328Z,9.27
2023-01-13T00:19:38.743Z,9.09
2023-01-13T00:22:06.309Z,9.15
2023-01-13T00:24:32.855Z,9.06
2023-01-13T00:26:59.220Z,8.96
2023-01-13T00:29:25.653Z,9.08
2023-01-13T00:31:52.269Z,8.90
2023-01-13T00:34:18.628Z,8.89
2023-01-13T00:36:45.027Z,8.82
2023-01-13T00:39:11.438Z,8.93
2023-01-13T00:41:56.403Z,8.91
2023-01-13T00:44:22.769Z,8.80
2023-01-13T00:46:49.136Z,8.77
2023-01-13T00:49:15.506Z,8.70
2023-01-13T00:51:41.858Z,8.70
2023-01-13T00:54:08.183Z,8.66
2023-01-13T00:56:40.047Z,8.68
2023-01-13T00:59:11.132Z,8.70
2023-01-13T01:01:37.932Z,8.51
2023-01-13T01:04:04.609Z,8.66
2023-01-13T01:06:31.015Z,8.63
2023-01-13T01:08:57.536Z,8.48
2023-01-13T01:11:26.316Z,8.37
2023-01-13T01:13:54.792Z,8.39
2023-01-13T01:16:23.927Z,8.30
2023-01-13T01:18:51.527Z,8.24
2023-01-13T01:21:18.967Z,8.23
2023-01-13T01:23:45.918Z,8.21
2023-01-13T01:26:15.733Z,8.14
2023-01-13T01:28:42.651Z,8.19
2023-01-13T01:31:16.482Z,8.15
2023-01-13T01:33:43.164Z,8.25
2023-01-13T01:36:14.732Z,8.14
2023-01-13T01:38:41.378Z,8.27
2023-01-13T01:41:07.923Z,8.29
2023-01-13T01:43:59.413Z,8.24
2023-01-13T01:46:28.057Z,8.21
2023-01-13T01:49:16.779Z,8.21
2023-01-13T01:51:55.136Z,8.26
2023-01-13T01:54:28.348Z,8.24
2023-01-13T01:56:55.358Z,8.15
2023-01-13T01:59:21.815Z,8.24
2023-01-13T02:01:48.449Z,8.34
2023-01-13T02:04:20.453Z,8.32
2023-01-13T02:06:48.151Z,8.23
2023-01-13T02:09:15.328Z,8.24
2023-01-13T02:12:00.146Z,8.29
2023-01-13T02:14:29.239Z,8.17
2023-01-13T02:17:16.450Z,8.03
2023-01-13T02:20:11.062Z,8.06
2023-01-13T02:22:54.904Z,8.15
2023-01-13T02:25:33.233Z,8.17
2023-01-13T02:28:34.772Z,8.11
2023-01-13T02:31:28.906Z,8.20
2023-01-13T02:34:09.536Z,8.23
2023-01-13T02:36:45.188Z,8.17
2023-01-13T02:39:27.052Z,8.08
2023-01-13T02:42:31.042Z,7.97
2023-01-13T02:45:06.698Z,8.11
2023-01-13T02:47:36.495Z,8.15
2023-01-13T02:50:08.816Z,8.21
2023-01-13T02:52:43.439Z,8.12
2023-01-13T02:55:15.742Z,8.05
2023-01-13T02:57:43.816Z,8.15
2023-01-13T03:00:12.413Z,8.11
2023-01-13T03:02:39.042Z,8.01
2023-01-13T03:05:06.844Z,8.07
2023-01-13T03:07:57.088Z,8.00
2023-01-13T03:10:37.312Z,7.99
2023-01-13T03:13:09.918Z,7.88
2023-01-13T03:15:58.537Z,7.95
2023-01-13T03:18:52.516Z,7.99
2023-01-13T03:21:27.919Z,8.12
2023-01-13T03:24:17.375Z,8.18
2023-01-13T03:26:51.215Z,8.14
2023-01-13T03:29:27.450Z,8.18
2023-01-13T03:31:57.570Z,8.19
2023-01-13T03:34:31.341Z,8.27
2023-01-13T03:37:01.265Z,8.23
2023-01-13T03:39:34.767Z,8.12
2023-01-13T03:42:07.727Z,8.13
2023-01-13T03:44:40.037Z,8.07
2023-01-13T03:47:41.228Z,8.07
2023-01-13T03:50:28.301Z,8.11
2023-01-13T03:53:07.471Z,8.20
2023-01-13T03:55:43.273Z,8.19
2023-01-13T03:58:17.665Z,8.19
2023-01-13T04:00:55.132Z,8.20
2023-01-13T04:03:31.574Z,8.20
2023-01-13T04:06:09.978Z,8.14
2023-01-13T04:08:44.596Z,8.21
2023-01-13T04:11:19.339Z,8.22
2023-01-13T04:13:48.588Z,8.32
2023-01-13T04:16:15.344Z,8.21
2023-01-13T04:18:41.728Z,8.32
2023-01-13T04:21:08.232Z,8.43
2023-01-13T04:23:34.616Z,8.50
2023-01-13T04:26:01.000Z,8.36
2023-01-13T04:28:27.576Z,8.43
2023-01-13T04:30:53.960Z,8.44
2023-01-13T04:33:20.939Z,8.31
2023-01-13T04:35:48.323Z,8.40
2023-01-13T04:38:17.137Z,8.32
2023-01-13T04:40:44.279Z,8.15
2023-01-13T04:43:11.175Z,8.24
2023-01-13T04:45:37.715Z,8.35
2023-01-13T04:48:04.440Z,8.29
2023-01-13T04:50:30.876Z,8.29
2023-01-13T04:52:57.245Z,8.25
2023-01-13T04:55:24.930Z,8.25
2023-01-13T04:57:51.617Z,8.28
2023-01-13T05:00:19.903Z,8.19
2023-01-13T05:02:46.285Z,8.10
2023-01-13T05:05:12.685Z,8.15
2023-01-13T05:07:39.069Z,8.20
2023-01-13T05:10:05.899Z,8.06
2023-01-13T05:12:51.115Z,8.25
2023-01-13T05:15:35.971Z,8.23
2023-01-13T05:18:02.600Z,8.16
2023-01-13T05:20:28.950Z,8.10
2023-01-13T05:23:13.703Z,8.23
2023-01-13T05:25:44.160Z,8.28
2023-01-13T05:28:11.007Z,8.17
2023-01-13T05:30:43.834Z,8.35
2023-01-13T05:33:11.419Z,8.49
2023-01-13T05:35:39.508Z,8.34
2023-01-13T05:38:05.904Z,8.38
2023-01-13T05:40:50.966Z,8.47
2023-01-13T05:43:19.916Z,8.32
2023-01-13T05:45:50.265Z,8.53
2023-01-13T05:48:17.901Z,8.67
2023-01-13T05:50:45.255Z,8.60
2023-01-13T05:53:11.770Z,8.58
2023-01-13T05:55:40.299Z,8.41
2023-01-13T05:58:08.505Z,8.47
2023-01-13T06:00:35.430Z,8.45
2023-01-13T06:03:02.576Z,8.43
2023-01-13T06:05:29.495Z,8.59
2023-01-13T06:08:00.228Z,8.45
2023-01-13T06:10:27.665Z,8.39
2023-01-13T06:12:54.172Z,8.42
2023-01-13T06:15:21.149Z,8.50
2023-01-13T06:17:47.771Z,8.57
2023-01-13T06:20:15.813Z,8.64
2023-01-13T06:22:45.620Z,8.65
2023-01-13T06:25:24.004Z,8.70
2023-01-13T06:27:51.051Z,8.66
2023-01-13T06:30:17.693Z,8.71
2023-01-13T06:32:47.916Z,8.77
2023-01-13T06:35:17.588Z,8.63
2023-01-13T06:37:45.127Z,8.68
2023-01-13T06:40:14.075Z,8.71
2023-01-13T06:42:59.742Z,8.71
2023-01-13T06:45:29.134Z,8.71
2023-01-13T06:47:58.359Z,8.66
2023-01-13T06:50:24.926Z,8.65
2023-01-13T06:52:51.693Z,8.78
2023-01-13T06:55:18.041Z,8.81
2023-01-13T06:58:02.364Z,8.73
2023-01-13T07:00:28.952Z,8.81
2023-01-13T07:03:07.184Z,8.70
2023-01-13T07:05:33.631Z,8.74
2023-01-13T07:08:00.378Z,8.68
2023-01-13T07:10:26.744Z,8.55
2023-01-13T07:13:11.556Z,8.54
2023-01-13T07:15:37.965Z,8.55
2023-01-13T07:18:04.335Z,8.59
2023-01-13T07:20:30.809Z,8.53
2023-01-13T07:22:57.972Z,8.55
2023-01-13T07:25:24.404Z,8.46
2023-01-13T07:27:50.804Z,8.48
2023-01-13T07:30:17.522Z,8.37
2023-01-13T07:32:43.918Z,8.37
2023-01-13T07:35:10.339Z,8.32
2023-01-13T07:37:38.146Z,8.49
2023-01-13T07:40:05.196Z,8.47
2023-01-13T07:42:50.052Z,8.39
2023-01-13T07:45:16.492Z,8.50
2023-01-13T07:47:42.854Z,8.53
2023-01-13T07:50:09.809Z,8.58
2023-01-13T07:52:36.192Z,8.48
2023-01-13T07:55:02.616Z,8.41
2023-01-13T07:57:29.024Z,8.12
2023-01-13T07:59:55.492Z,8.24
2023-01-13T08:02:22.084Z,8.19
2023-01-13T08:04:48.628Z,8.09
2023-01-13T08:07:15.035Z,8.11
2023-01-13T08:09:41.389Z,8.01
2023-01-13T08:12:26.563Z,8.06
2023-01-13T08:14:53.984Z,8.01
2023-01-13T08:17:20.656Z,8.18
2023-01-13T08:19:47.434Z,8.17
2023-01-13T08:22:13.816Z,8.18
2023-01-13T08:24:40.187Z,8.10
2023-01-13T08:27:06.569Z,8.10
2023-01-13T08:29:32.959Z,8.13
2023-01-13T08:31:59.345Z,8.17
2023-01-13T08:34:25.712Z,8.27
2023-01-13T08:36:52.129Z,8.24
2023-01-13T08:39:18.653Z,8.22
2023-01-13T08:41:56.885Z,8.13
2023-01-13T08:44:24.547Z,8.17
2023-01-13T08:46:50.934Z,8.24
2023-01-13T08:49:17.585Z,8.10
2023-01-13T08:51:44.679Z,8.18
2023-01-13T08:54:11.643Z,8.20
2023-01-13T08:56:39.053Z,8.24
2023-01-13T08:59:05.987Z,8.24
2023-01-13T09:01:33.897Z,8.28
2023-01-13T09:04:00.508Z,8.41
2023-01-13T09:06:26.927Z,8.40
2023-01-13T09:08:53.353Z,8.38
2023-01-13T09:11:44.685Z,8.40
2023-01-13T09:14:11.041Z,8.42
2023-01-13T09:16:37.408Z,8.46
2023-01-13T09:19:03.790Z,8.38
2023-01-13T09:21:30.286Z,8.44
2023-01-13T09:23:56.643Z,8.44
2023-01-13T09:26:23.019Z,8.56
2023-01-13T09:28:49.502Z,8.52
2023-01-13T09:31:15.946Z,8.43
2023-01-13T09:34:00.667Z,8.45
2023-01-13T09:36:27.057Z,8.38
2023-01-13T09:38:53.431Z,8.38
2023-01-13T09:41:41.009Z,8.36
2023-01-13T09:44:16.664Z,8.14
2023-01-13T09:46:59.126Z,8.10
2023-01-13T09:49:37.698Z,8.21
2023-01-13T09:52:08.179Z,8.20
2023-01-13T09:54:50.265Z,8.19
2023-01-13T09:57:19.240Z,8.19
2023-01-13T09:59:46.043Z,8.14
2023-01-13T10:02:24.207Z,8.23
2023-01-13T10:05:04.993Z,8.19
2023-01-13T10:07:35.492Z,8.17
2023-01-13T10:10:03.359Z,8.08
2023-01-13T10:12:49.894Z,8.21
2023-01-13T10:15:21.250Z,8.29
2023-01-13T10:17:52.080Z,8.29
2023-01-13T10:20:30.026Z,8.20
2023-01-13T10:23:19.113Z,8.28
2023-01-13T10:25:59.278Z,8.34
2023-01-13T10:28:26.431Z,8.36
2023-01-13T10:30:52.902Z,8.48
2023-01-13T10:33:26.268Z,8.27
2023-01-13T10:36:04.245Z,8.19
2023-01-13T10:38:42.304Z,8.13
2023-01-13T10:41:20.559Z,8.10
2023-01-13T10:44:09.415Z,8.04
2023-01-13T10:46:54.426Z,8.04
2023-01-13T10:49:28.782Z,8.05
2023-01-13T10:51:55.365Z,8.04
2023-01-13T10:54:24.495Z,8.03
2023-01-13T10:57:28.721Z,8.07
2023-01-13T10:59:56.244Z,8.31
2023-01-13T11:02:29.280Z,8.37
2023-01-13T11:04:55.713Z,8.34
2023-01-13T11:07:32.897Z,8.36
2023-01-13T11:10:17.355Z,8.44
2023-01-13T11:13:12.464Z,8.47
2023-01-13T11:15:55.268Z,8.56
2023-01-13T11:18:30.859Z,8.50
2023-01-13T11:21:00.271Z,8.43
2023-01-13T11:23:35.368Z,8.46
2023-01-13T11:26:12.826Z,8.50
2023-01-13T11:28:50.307Z,8.64
2023-01-13T11:31:25.303Z,8.66
2023-01-13T11:33:59.140Z,8.58
2023-01-13T11:36:46.300Z,8.65
2023-01-13T11:39:24.884Z,8.51
2023-01-13T11:42:22.138Z,8.51
2023-01-13T11:44:58.304Z,8.46
2023-01-13T11:47:26.870Z,8.49
2023-01-13T11:49:53.647Z,8.65
2023-01-13T11:52:32.137Z,8.50
2023-01-13T11:55:10.185Z,8.53
2023-01-13T11:57:54.632Z,8.41
2023-01-13T12:00:38.444Z,8.52
2023-01-13T12:03:24.532Z,8.57
2023-01-13T12:06:12.876Z,8.56
2023-01-13T12:08:51.840Z,8.53
2023-01-13T12:12:02.389Z,8.53
2023-01-13T12:14:51.950Z,8.60
2023-01-13T12:17:27.579Z,8.76
2023-01-13T12:19:54.064Z,8.90
2023-01-13T12:22:30.932Z,8.92
2023-01-13T12:25:21.449Z,8.79
2023-01-13T12:27:58.012Z,8.83
2023-01-13T12:30:50.438Z,8.81
2023-01-13T12:33:45.397Z,8.86
2023-01-13T12:36:23.781Z,8.82
2023-01-13T12:38:59.358Z,8.83
2023-01-13T12:42:11.096Z,8.80
2023-01-13T12:44:37.475Z,8.83
2023-01-13T12:47:03.927Z,8.89
2023-01-13T12:49:33.396Z,8.91
2023-01-13T12:52:08.299Z,8.95
2023-01-13T12:54:37.399Z,8.87
2023-01-13T12:57:33.947Z,8.88
2023-01-13T13:00:03.143Z,8.89
2023-01-13T13:02:35.633Z,8.80
2023-01-13T13:05:13.849Z,8.73
2023-01-13T13:07:45.437Z,8.73
2023-01-13T13:10:29.561Z,8.86
2023-01-13T13:13:17.892Z,8.85
2023-01-13T13:15:46.627Z,8.81
2023-01-13T13:18:23.823Z,8.83
2023-01-13T13:21:01.661Z,8.95
2023-01-13T13:23:47.746Z,8.93
2023-01-13T13:26:24.860Z,8.89
2023-01-13T13:29:31.326Z,8.76
2023-01-13T13:32:06.710Z,8.79
2023-01-13T13:34:53.086Z,8.71
2023-01-13T13:37:59.504Z,8.81
2023-01-13T13:40:53.728Z,8.89
2023-01-13T13:43:39.199Z,9.04
2023-01-13T13:46:42.280Z,9.01
2023-01-13T13:49:08.667Z,8.91
2023-01-13T13:51:46.363Z,9.03
2023-01-13T13:54:17.013Z,8.93
2023-01-13T13:56:46.032Z,8.95
2023-01-13T13:59:16.604Z,8.94
2023-01-13T14:01:45.802Z,8.91
2023-01-13T14:04:17.925Z,9.03
2023-01-13T14:07:11.762Z,9.07
2023-01-13T14:09:45.105Z,9.11
2023-01-13T14:12:22.662Z,9.09
2023-01-13T14:14:50.006Z,9.10
2023-01-13T14:17:24.328Z,9.04
2023-01-13T14:20:16.806Z,9.12
2023-01-13T14:23:00.488Z,9.07
2023-01-13T14:25:39.310Z,9.11
2023-01-13T14:28:17.592Z,9.17
2023-01-13T14:30:44.589Z,8.96
2023-01-13T14:33:24.366Z,8.95
2023-01-13T14:36:36.444Z,8.99
2023-01-13T14:39:02.751Z,8.88
2023-01-13T14:41:38.027Z,8.95
2023-01-13T14:44:23.014Z,9.00
2023-01-13T14:46:49.882Z,8.91
2023-01-13T14:49:22.819Z,8.87
2023-01-13T14:51:49.825Z,8.77
2023-01-13T14:54:41.203Z,8.77
2023-01-13T14:57:25.887Z,8.72
2023-01-13T14:59:57.443Z,8.64
2023-01-13T15:02:29.772Z,8.70
2023-01-13T15:05:19.234Z,8.68
2023-01-13T15:07:54.171Z,8.68
2023-01-13T15:10:23.954Z,8.60
2023-01-13T15:49:47.363Z,8.22
2023-01-13T15:52:25.186Z,8.34
2023-01-13T15:54:52.831Z,8.12
2023-01-13T15:57:27.901Z,8.25
2023-01-13T16:00:00.488Z,8.27
2023-01-13T16:02:27.308Z,8.30
2023-01-13T16:04:54.422Z,8.33
2023-01-13T16:07:22.438Z,8.51
2023-01-13T16:09:48.816Z,8.54
2023-01-13T16:12:15.247Z,8.47
2023-01-13T16:14:41.735Z,8.39
2023-01-13T16:17:18.933Z,8.41
2023-01-13T16:19:45.867Z,8.41
2023-01-13T16:22:14.372Z,8.40
2023-01-13T16:24:41.358Z,8.41
2023-01-13T16:27:16.714Z,8.39
2023-01-13T16:29:43.824Z,8.30
2023-01-13T16:32:10.367Z,8.35
2023-01-13T16:34:36.862Z,8.40
2023-01-13T16:37:03.373Z,8.33
2023-01-13T16:39:30.898Z,8.24
2023-01-13T16:41:57.297Z,8.24
2023-01-13T16:44:23.661Z,8.17
2023-01-13T16:46:50.088Z,8.27
2023-01-13T16:49:17.485Z,8.12
2023-01-13T16:51:44.233Z,8.23
2023-01-13T16:54:11.808Z,8.20
2023-01-13T16:56:38.326Z,8.09
2023-01-13T16:59:11.556Z,8.08
2023-01-13T17:01:40.089Z,8.07
2023-01-13T17:04:13.018Z,8.14
2023-01-13T17:07:00.776Z,8.21
2023-01-13T17:09:29.058Z,8.27
2023-01-13T17:11:56.521Z,8.22
2023-01-13T17:14:23.556Z,8.44
2023-01-13T17:16:53.024Z,8.40
2023-01-13T17:19:22.078Z,8.36
2023-01-13T17:21:50.832Z,8.32
2023-01-13T17:24:17.216Z,8.23
2023-01-13T17:26:49.336Z,8.32
2023-01-13T17:29:22.522Z,8.34
2023-01-13T17:31:51.145Z,8.32
2023-01-13T17:34:18.587Z,8.20
2023-01-13T17:36:45.034Z,8.38
2023-01-13T17:39:25.704Z,8.34
2023-01-13T17:41:53.443Z,8.36
2023-01-13T17:44:21.428Z,8.39
2023-01-13T17:46:48.720Z,8.49
2023-01-13T17:49:17.379Z,8.46
2023-01-13T17:51:47.975Z,8.53
2023-01-13T17:54:15.613Z,8.54
2023-01-13T17:56:42.636Z,8.64
2023-01-13T17:59:11.145Z,8.52
2023-01-13T18:01:38.256Z,8.52
2023-01-13T18:04:04.817Z,8.51
2023-01-13T18:06:32.457Z,8.44
2023-01-13T18:09:00.814Z,8.39
2023-01-13T18:11:27.478Z,8.46
2023-01-13T18:13:56.819Z,8.44
2023-01-13T18:16:24.963Z,8.42
2023-01-13T18:18:53.574Z,8.39
2023-01-13T18:21:44.567Z,8.41
2023-01-13T18:24:31.501Z,8.44
2023-01-13T18:27:16.715Z,8.60
2023-01-13T18:29:43.695Z,8.59
2023-01-13T18:32:10.051Z,8.75
2023-01-13T18:34:37.464Z,8.66
2023-01-13T18:37:05.090Z,8.69
2023-01-13T18:39:31.890Z,8.74
2023-01-13T18:42:17.259Z,8.80
2023-01-13T18:44:43.639Z,8.84
2023-01-13T18:47:10.008Z,8.62
2023-01-13T18:49:36.774Z,8.70
2023-01-13T18:52:03.365Z,8.72
2023-01-13T18:54:29.719Z,8.75
2023-01-13T18:56:57.115Z,8.77
2023-01-13T18:59:24.636Z,8.80
2023-01-13T19:01:51.888Z,8.73
2023-01-13T19:04:18.586Z,8.77
2023-01-13T19:06:51.556Z,8.85
2023-01-13T19:09:22.658Z,8.77
2023-01-13T19:11:50.398Z,8.86
2023-01-13T19:14:33.883Z,8.97
2023-01-13T19:17:12.444Z,9.01
2023-01-13T19:19:40.552Z,8.78
2023-01-13T19:22:07.703Z,8.83
2023-01-13T19:24:34.408Z,8.87
2023-01-13T19:27:00.988Z,8.72
2023-01-13T19:29:27.454Z,8.84
2023-01-13T19:31:54.032Z,8.82
2023-01-13T19:34:20.700Z,8.73
2023-01-13T19:36:47.124Z,8.62
2023-01-13T19:39:13.946Z,8.65
2023-01-13T19:41:59.111Z,8.72
2023-01-13T19:44:44.051Z,8.73
2023-01-13T19:47:10.436Z,8.86
2023-01-13T20:10:31.756Z,7.83
2023-01-13T20:25:31.079Z,7.93
2023-01-13T20:27:58.411Z,8.00
2023-01-13T20:30:24.842Z,8.02
2023-01-13T20:32:52.102Z,7.94
2023-01-13T20:35:18.665Z,7.68
2023-01-13T20:37:45.043Z,7.52
2023-01-13T20:40:15.454Z,7.31
2023-01-13T20:42:44.971Z,7.04
2023-01-13T20:45:17.015Z,6.92
2023-01-13T20:47:44.697Z,6.92
2023-01-13T20:50:11.766Z,6.78
2023-01-13T20:52:38.361Z,6.86
2023-01-13T20:55:07.229Z,6.85
2023-01-13T20:57:33.732Z,6.77
2023-01-13T21:00:00.523Z,6.66
2023-01-13T21:02:26.904Z,6.68
2023-01-13T21:04:53.331Z,6.46
2023-01-13T21:07:19.853Z,6.51
2023-01-13T21:09:46.231Z,6.45
2023-01-13T21:12:33.628Z,6.49
2023-01-13T21:15:18.443Z,6.25
2023-01-13T21:18:04.086Z,6.24
2023-01-13T21:20:32.977Z,6.40
2023-01-13T21:23:02.956Z,6.68
2023-01-13T21:25:31.035Z,6.83
2023-01-13T21:28:05.600Z,6.80
2023-01-13T21:30:32.483Z,6.72
2023-01-13T21:33:00.687Z,6.87
2023-01-13T21:35:27.047Z,6.90
2023-01-13T21:37:53.444Z,6.79
2023-01-13T21:40:19.967Z,6.93
2023-01-13T21:43:04.814Z,7.03
2023-01-13T21:45:49.685Z,7.12
2023-01-13T21:48:16.179Z,7.20
2023-01-13T21:50:42.594Z,7.27
2023-01-13T21:53:09.194Z,7.33
2023-01-13T21:55:36.665Z,7.23
2023-01-13T21:58:13.275Z,7.28
2023-01-13T22:00:42.425Z,7.25
2023-01-13T22:03:10.509Z,7.19
2023-01-13T22:05:37.342Z,7.30
2023-01-13T22:08:04.467Z,7.36
2023-01-13T22:10:31.489Z,7.40
2023-01-13T22:13:20.603Z,7.33
2023-01-13T22:15:47.474Z,7.30
2023-01-13T22:18:13.925Z,7.06
2023-01-13T22:20:41.954Z,7.05
2023-01-13T22:23:08.408Z,7.09
2023-01-13T22:25:34.776Z,6.98
2023-01-13T22:28:05.911Z,7.00
2023-01-13T22:30:33.106Z,7.00
2023-01-13T22:32:59.787Z,7.04
2023-01-13T22:35:26.223Z,6.98
2023-01-13T22:37:52.584Z,7.16
2023-01-13T22:40:18.963Z,7.23
2023-01-13T22:42:45.441Z,7.24
2023-01-13T22:45:13.441Z,7.18
2023-01-13T22:47:40.002Z,7.10
2023-01-13T22:50:07.826Z,7.07
2023-01-13T22:52:35.154Z,7.06
2023-01-13T22:55:01.623Z,6.98
2023-01-13T22:57:47.626Z,6.98
2023-01-13T23:00:15.111Z,6.98
2023-01-13T23:02:41.658Z,6.98
2023-01-13T23:05:08.416Z,7.08
2023-01-13T23:07:35.554Z,7.07
2023-01-13T23:10:02.393Z,7.11
2023-01-13T23:12:28.754Z,7.16
2023-01-13T23:14:55.112Z,7.16
2023-01-13T23:17:21.460Z,7.20
2023-01-13T23:19:47.837Z,7.14
2023-01-13T23:22:14.224Z,7.12
2023-01-13T23:24:40.589Z,7.03
2023-01-13T23:27:06.991Z,7.09
2023-01-13T23:29:33.351Z,7.07
2023-01-13T23:31:59.720Z,7.12
2023-01-13T23:34:26.266Z,7.13
2023-01-13T23:36:52.636Z,7.11
2023-01-13T23:39:19.048Z,7.10
2023-01-13T23:41:45.392Z,7.08
2023-01-13T23:44:11.785Z,7.27
2023-01-13T23:46:38.311Z,7.19
2023-01-13T23:49:04.901Z,7.18
2023-01-13T23:51:31.718Z,7.12
2023-01-13T23:53:59.247Z,7.15
2023-01-13T23:56:28.829Z,7.21
2023-01-13T23:58:55.550Z,7.16
